sensor_id;sensor_type;location;lat;lon;timestamp;pressure;altitude;pressure_sealevel;temperature;humidity
8416;BME280;4245;42.120;24.732;2023-05-25T00:01:34;99194.69;;;17.41;100.00
8416;BME280;4245;42.120;24.732;2023-05-25T00:04:02;99189.59;;;17.20;100.00
8416;BME280;4245;42.120;24.732;2023-05-25T00:06:29;99183.03;;;17.32;100.00
8416;BME280;4245;42.120;24.732;2023-05-25T00:08:57;99190.28;;;17.22;100.00
8416;BME280;4245;42.120;24.732;2023-05-25T00:11:24;99190.66;;;17.10;100.00
8416;BME280;4245;42.120;24.732;2023-05-25T00:13:52;99186.56;;;17.06;100.00
8416;BME280;4245;42.120;24.732;2023-05-25T00:16:19;99182.97;;;16.97;100.00
8416;BME280;4245;42.120;24.732;2023-05-25T00:18:46;99191.16;;;16.95;100.00
8416;BME280;4245;42.120;24.732;2023-05-25T00:21:13;99189.91;;;16.90;100.00
8416;BME280;4245;42.120;24.732;2023-05-25T00:23:40;99193.91;;;16.86;100.00
8416;BME280;4245;42.120;24.732;2023-05-25T00:26:09;99191.34;;;17.12;100.00
8416;BME280;4245;42.120;24.732;2023-05-25T00:28:35;99189.19;;;17.15;100.00
8416;BME280;4245;42.120;24.732;2023-05-25T00:31:02;99192.19;;;17.12;100.00
8416;BME280;4245;42.120;24.732;2023-05-25T00:33:29;99190.56;;;17.19;100.00
8416;BME280;4245;42.120;24.732;2023-05-25T00:35:56;99186.50;;;17.15;100.00
8416;BME280;4245;42.120;24.732;2023-05-25T00:38:23;99181.81;;;17.00;100.00
8416;BME280;4245;42.120;24.732;2023-05-25T00:40:53;99186.63;;;16.96;100.00
8416;BME280;4245;42.120;24.732;2023-05-25T00:43:22;99181.53;;;17.03;100.00
8416;BME280;4245;42.120;24.732;2023-05-25T00:45:49;99178.78;;;16.85;100.00
8416;BME280;4245;42.120;24.732;2023-05-25T00:48:17;99181.31;;;16.86;100.00
8416;BME280;4245;42.120;24.732;2023-05-25T00:50:44;99187.72;;;16.76;100.00
8416;BME280;4245;42.120;24.732;2023-05-25T00:53:12;99181.97;;;16.71;100.00
8416;BME280;4245;42.120;24.732;2023-05-25T00:55:43;99181.03;;;16.62;100.00
8416;BME280;4245;42.120;24.732;2023-05-25T00:58:12;99188.19;;;16.71;100.00
8416;BME280;4245;42.120;24.732;2023-05-25T01:00:41;99177.63;;;16.70;100.00
8416;BME280;4245;42.120;24.732;2023-05-25T01:03:13;99184.50;;;16.72;100.00
8416;BME280;4245;42.120;24.732;2023-05-25T01:05:44;99184.19;;;16.75;100.00
8416;BME280;4245;42.120;24.732;2023-05-25T01:08:13;99180.97;;;16.72;100.00
8416;BME280;4245;42.120;24.732;2023-05-25T01:10:42;99178.78;;;16.85;100.00
8416;BME280;4245;42.120;24.732;2023-05-25T01:13:12;99181.03;;;16.62;100.00
8416;BME280;4245;42.120;24.732;2023-05-25T01:15:41;99179.19;;;16.63;100.00
8416;BME280;4245;42.120;24.732;2023-05-25T01:18:08;99178.19;;;16.64;100.00
8416;BME280;4245;42.120;24.732;2023-05-25T01:20:51;99174.69;;;16.53;100.00
8416;BME280;4245;42.120;24.732;2023-05-25T01:23:19;99169.75;;;16.59;100.00
8416;BME280;4245;42.120;24.732;2023-05-25T01:25:50;99164.41;;;16.49;100.00
8416;BME280;4245;42.120;24.732;2023-05-25T01:28:24;99169.09;;;16.37;100.00
8416;BME280;4245;42.120;24.732;2023-05-25T01:30:52;99170.47;;;16.41;100.00
8416;BME280;4245;42.120;24.732;2023-05-25T01:33:21;99172.06;;;16.34;100.00
8416;BME280;4245;42.120;24.732;2023-05-25T01:35:51;99170.34;;;16.43;100.00
8416;BME280;4245;42.120;24.732;2023-05-25T01:38:18;99167.34;;;16.46;100.00
8416;BME280;4245;42.120;24.732;2023-05-25T01:40:45;99170.03;;;16.46;100.00
8416;BME280;4245;42.120;24.732;2023-05-25T01:43:12;99162.78;;;16.29;100.00
8416;BME280;4245;42.120;24.732;2023-05-25T01:45:39;99169.22;;;16.45;100.00
8416;BME280;4245;42.120;24.732;2023-05-25T01:48:12;99159.19;;;16.47;100.00
8416;BME280;4245;42.120;24.732;2023-05-25T01:50:47;99160.34;;;16.45;100.00
8416;BME280;4245;42.120;24.732;2023-05-25T01:53:22;99163.47;;;16.40;100.00
8416;BME280;4245;42.120;24.732;2023-05-25T01:55:53;99163.78;;;16.18;100.00
8416;BME280;4245;42.120;24.732;2023-05-25T01:58:23;99174.81;;;16.15;100.00
8416;BME280;4245;42.120;24.732;2023-05-25T02:00:51;99183.13;;;16.12;100.00
8416;BME280;4245;42.120;24.732;2023-05-25T02:03:20;99180.44;;;16.22;100.00
8416;BME280;4245;42.120;24.732;2023-05-25T02:05:47;99178.03;;;16.19;100.00
8416;BME280;4245;42.120;24.732;2023-05-25T02:08:14;99182.84;;;16.25;100.00
8416;BME280;4245;42.120;24.732;2023-05-25T02:10:42;99185.13;;;16.10;100.00
8416;BME280;4245;42.120;24.732;2023-05-25T02:13:09;99188.38;;;16.04;100.00
8416;BME280;4245;42.120;24.732;2023-05-25T02:15:36;99189.53;;;15.92;100.00
8416;BME280;4245;42.120;24.732;2023-05-25T02:18:02;99185.16;;;15.91;100.00
8416;BME280;4245;42.120;24.732;2023-05-25T02:20:30;99186.88;;;15.92;100.00
8416;BME280;4245;42.120;24.732;2023-05-25T02:22:57;99185.44;;;15.88;100.00
8416;BME280;4245;42.120;24.732;2023-05-25T02:25:23;99181.09;;;15.87;100.00
8416;BME280;4245;42.120;24.732;2023-05-25T02:27:52;99186.56;;;15.95;100.00
8416;BME280;4245;42.120;24.732;2023-05-25T02:30:18;99189.97;;;15.97;100.00
8416;BME280;4245;42.120;24.732;2023-05-25T02:32:45;99191.50;;;15.99;100.00
8416;BME280;4245;42.120;24.732;2023-05-25T02:35:12;99192.47;;;15.98;100.00
8416;BME280;4245;42.120;24.732;2023-05-25T02:37:39;99193.19;;;16.00;100.00
8416;BME280;4245;42.120;24.732;2023-05-25T02:40:07;99192.63;;;16.06;100.00
8416;BME280;4245;42.120;24.732;2023-05-25T02:42:35;99189.34;;;16.03;100.00
8416;BME280;4245;42.120;24.732;2023-05-25T02:45:03;99190.38;;;15.92;100.00
8416;BME280;4245;42.120;24.732;2023-05-25T02:47:31;99186.69;;;15.93;100.00
8416;BME280;4245;42.120;24.732;2023-05-25T02:49:57;99191.53;;;15.80;100.00
8416;BME280;4245;42.120;24.732;2023-05-25T02:52:24;99193.38;;;15.60;100.00
8416;BME280;4245;42.120;24.732;2023-05-25T02:54:51;99191.63;;;15.50;100.00
8416;BME280;4245;42.120;24.732;2023-05-25T02:57:18;99195.78;;;15.54;100.00
8416;BME280;4245;42.120;24.732;2023-05-25T02:59:45;99196.75;;;15.62;100.00
8416;BME280;4245;42.120;24.732;2023-05-25T03:02:14;99194.75;;;15.64;100.00
8416;BME280;4245;42.120;24.732;2023-05-25T03:04:42;99202.53;;;15.68;100.00
8416;BME280;4245;42.120;24.732;2023-05-25T03:07:10;99201.94;;;15.64;100.00
8416;BME280;4245;42.120;24.732;2023-05-25T03:09:37;99208.56;;;15.70;100.00
8416;BME280;4245;42.120;24.732;2023-05-25T03:12:04;99211.84;;;15.73;100.00
8416;BME280;4245;42.120;24.732;2023-05-25T03:14:31;99208.44;;;15.81;100.00
8416;BME280;4245;42.120;24.732;2023-05-25T03:16:58;99214.91;;;15.88;100.00
8416;BME280;4245;42.120;24.732;2023-05-25T03:19:26;99218.41;;;15.98;100.00
8416;BME280;4245;42.120;24.732;2023-05-25T03:21:53;99217.44;;;15.99;100.00
8416;BME280;4245;42.120;24.732;2023-05-25T03:24:20;99219.25;;;16.08;100.00
8416;BME280;4245;42.120;24.732;2023-05-25T03:26:46;99215.16;;;16.04;100.00
8416;BME280;4245;42.120;24.732;2023-05-25T03:29:13;99220.41;;;16.05;100.00
8416;BME280;4245;42.120;24.732;2023-05-25T03:31:40;99223.75;;;16.07;100.00
8416;BME280;4245;42.120;24.732;2023-05-25T03:34:07;99223.50;;;16.11;100.00
8416;BME280;4245;42.120;24.732;2023-05-25T03:36:35;99219.41;;;16.16;100.00
8416;BME280;4245;42.120;24.732;2023-05-25T03:39:03;99225.72;;;16.25;100.00
8416;BME280;4245;42.120;24.732;2023-05-25T03:41:30;99222.91;;;16.26;100.00
8416;BME280;4245;42.120;24.732;2023-05-25T03:43:57;99223.44;;;16.39;100.00
8416;BME280;4245;42.120;24.732;2023-05-25T03:46:24;99223.09;;;16.52;100.00
8416;BME280;4245;42.120;24.732;2023-05-25T03:48:50;99219.84;;;16.48;100.00
8416;BME280;4245;42.120;24.732;2023-05-25T03:51:17;99214.50;;;16.48;100.00
8416;BME280;4245;42.120;24.732;2023-05-25T03:53:45;99225.53;;;16.45;100.00
8416;BME280;4245;42.120;24.732;2023-05-25T03:56:12;99217.13;;;16.68;100.00
8416;BME280;4245;42.120;24.732;2023-05-25T03:58:39;99216.56;;;16.74;100.00
8416;BME280;4245;42.120;24.732;2023-05-25T04:01:05;99216.03;;;16.61;100.00
8416;BME280;4245;42.120;24.732;2023-05-25T04:03:34;99228.84;;;16.57;100.00
8416;BME280;4245;42.120;24.732;2023-05-25T04:06:00;99224.25;;;16.59;100.00
8416;BME280;4245;42.120;24.732;2023-05-25T04:08:27;99219.38;;;16.72;100.00
8416;BME280;4245;42.120;24.732;2023-05-25T04:10:56;99226.00;;;16.78;100.00
8416;BME280;4245;42.120;24.732;2023-05-25T04:13:22;99220.94;;;16.75;100.00
8416;BME280;4245;42.120;24.732;2023-05-25T04:15:49;99227.69;;;16.79;100.00
8416;BME280;4245;42.120;24.732;2023-05-25T04:18:16;99231.31;;;16.87;100.00
8416;BME280;4245;42.120;24.732;2023-05-25T04:20:44;99223.41;;;16.86;100.00
8416;BME280;4245;42.120;24.732;2023-05-25T04:23:11;99231.56;;;16.94;100.00
8416;BME280;4245;42.120;24.732;2023-05-25T04:25:38;99229.03;;;16.92;100.00
8416;BME280;4245;42.120;24.732;2023-05-25T04:28:07;99233.13;;;17.14;100.00
8416;BME280;4245;42.120;24.732;2023-05-25T04:30:36;99230.75;;;17.11;100.00
8416;BME280;4245;42.120;24.732;2023-05-25T04:33:04;99234.78;;;17.25;100.00
8416;BME280;4245;42.120;24.732;2023-05-25T04:35:30;99240.19;;;17.43;100.00
8416;BME280;4245;42.120;24.732;2023-05-25T04:37:57;99241.91;;;17.61;100.00
8416;BME280;4245;42.120;24.732;2023-05-25T04:40:27;99241.97;;;17.87;100.00
8416;BME280;4245;42.120;24.732;2023-05-25T04:42:54;99250.25;;;18.11;100.00
8416;BME280;4245;42.120;24.732;2023-05-25T04:45:22;99239.94;;;18.24;100.00
8416;BME280;4245;42.120;24.732;2023-05-25T04:47:49;99241.03;;;18.40;100.00
8416;BME280;4245;42.120;24.732;2023-05-25T04:50:16;99246.59;;;18.64;100.00
8416;BME280;4245;42.120;24.732;2023-05-25T04:52:43;99245.94;;;18.62;100.00
8416;BME280;4245;42.120;24.732;2023-05-25T04:55:09;99244.72;;;18.56;100.00
8416;BME280;4245;42.120;24.732;2023-05-25T04:57:36;99247.25;;;18.58;100.00
8416;BME280;4245;42.120;24.732;2023-05-25T05:00:04;99248.88;;;18.77;100.00
8416;BME280;4245;42.120;24.732;2023-05-25T05:02:35;99252.31;;;18.95;100.00
8416;BME280;4245;42.120;24.732;2023-05-25T05:05:02;99253.97;;;19.22;100.00
8416;BME280;4245;42.120;24.732;2023-05-25T05:07:29;99248.97;;;19.43;100.00
8416;BME280;4245;42.120;24.732;2023-05-25T05:09:56;99248.50;;;19.47;100.00
8416;BME280;4245;42.120;24.732;2023-05-25T05:12:22;99256.94;;;19.61;100.00
8416;BME280;4245;42.120;24.732;2023-05-25T05:14:49;99246.34;;;19.17;100.00
8416;BME280;4245;42.120;24.732;2023-05-25T05:17:16;99251.16;;;19.39;100.00
8416;BME280;4245;42.120;24.732;2023-05-25T05:19:44;99249.59;;;19.37;100.00
8416;BME280;4245;42.120;24.732;2023-05-25T05:22:11;99247.25;;;19.42;100.00
8416;BME280;4245;42.120;24.732;2023-05-25T05:24:40;99241.16;;;19.82;100.00
8416;BME280;4245;42.120;24.732;2023-05-25T05:27:07;99245.72;;;20.14;100.00
8416;BME280;4245;42.120;24.732;2023-05-25T05:29:33;99248.53;;;20.28;98.46
8416;BME280;4245;42.120;24.732;2023-05-25T05:32:01;99250.75;;;20.25;98.51
8416;BME280;4245;42.120;24.732;2023-05-25T05:34:28;99256.34;;;20.31;99.33
8416;BME280;4245;42.120;24.732;2023-05-25T05:36:57;99259.16;;;20.70;97.79
8416;BME280;4245;42.120;24.732;2023-05-25T05:39:24;99248.44;;;20.93;94.74
8416;BME280;4245;42.120;24.732;2023-05-25T05:41:52;99255.03;;;20.99;94.47
8416;BME280;4245;42.120;24.732;2023-05-25T05:44:19;99261.03;;;21.25;92.28
8416;BME280;4245;42.120;24.732;2023-05-25T05:46:46;99256.75;;;21.39;91.29
8416;BME280;4245;42.120;24.732;2023-05-25T05:49:13;99251.75;;;21.50;91.48
8416;BME280;4245;42.120;24.732;2023-05-25T05:51:40;99261.16;;;21.62;90.55
8416;BME280;4245;42.120;24.732;2023-05-25T05:54:08;99268.72;;;21.98;87.74
8416;BME280;4245;42.120;24.732;2023-05-25T05:56:35;99262.47;;;22.20;86.73
8416;BME280;4245;42.120;24.732;2023-05-25T05:59:01;99263.00;;;22.53;84.87
8416;BME280;4245;42.120;24.732;2023-05-25T06:01:28;99264.34;;;22.72;83.51
8416;BME280;4245;42.120;24.732;2023-05-25T06:03:55;99262.22;;;22.96;82.22
8416;BME280;4245;42.120;24.732;2023-05-25T06:06:22;99270.91;;;23.21;81.02
8416;BME280;4245;42.120;24.732;2023-05-25T06:08:49;99263.03;;;23.56;78.97
8416;BME280;4245;42.120;24.732;2023-05-25T06:11:18;99269.38;;;23.33;78.02
8416;BME280;4245;42.120;24.732;2023-05-25T06:13:44;99265.00;;;23.32;78.63
8416;BME280;4245;42.120;24.732;2023-05-25T06:16:11;99266.06;;;23.17;78.78
8416;BME280;4245;42.120;24.732;2023-05-25T06:18:38;99264.75;;;22.98;78.88
8416;BME280;4245;42.120;24.732;2023-05-25T06:21:05;99272.38;;;23.24;78.47
8416;BME280;4245;42.120;24.732;2023-05-25T06:23:31;99264.09;;;22.96;79.49
8416;BME280;4245;42.120;24.732;2023-05-25T06:26:02;99272.41;;;23.09;76.73
8416;BME280;4245;42.120;24.732;2023-05-25T06:28:31;99278.94;;;23.15;77.81
8416;BME280;4245;42.120;24.732;2023-05-25T06:30:58;99271.91;;;23.50;84.79
8416;BME280;4245;42.120;24.732;2023-05-25T06:33:24;99287.34;;;23.85;75.11
8416;BME280;4245;42.120;24.732;2023-05-25T06:35:51;99285.47;;;24.07;78.96
8416;BME280;4245;42.120;24.732;2023-05-25T06:38:20;99289.28;;;24.55;69.64
8416;BME280;4245;42.120;24.732;2023-05-25T06:40:48;99292.59;;;24.50;77.98
8416;BME280;4245;42.120;24.732;2023-05-25T06:43:15;99292.75;;;24.70;70.97
8416;BME280;4245;42.120;24.732;2023-05-25T06:45:43;99289.00;;;24.92;71.06
8416;BME280;4245;42.120;24.732;2023-05-25T06:48:10;99281.81;;;25.19;70.59
8416;BME280;4245;42.120;24.732;2023-05-25T06:50:37;99276.00;;;25.29;70.13
8416;BME280;4245;42.120;24.732;2023-05-25T06:53:04;99280.03;;;25.39;70.47
8416;BME280;4245;42.120;24.732;2023-05-25T06:55:31;99273.44;;;25.62;68.96
8416;BME280;4245;42.120;24.732;2023-05-25T06:57:57;99277.78;;;25.49;67.19
8416;BME280;4245;42.120;24.732;2023-05-25T07:00:24;99273.28;;;25.70;69.68
8416;BME280;4245;42.120;24.732;2023-05-25T07:02:52;99271.81;;;25.67;63.62
8416;BME280;4245;42.120;24.732;2023-05-25T07:05:19;99270.31;;;25.58;69.00
8416;BME280;4245;42.120;24.732;2023-05-25T07:07:46;99273.97;;;25.85;65.20
8416;BME280;4245;42.120;24.732;2023-05-25T07:10:13;99274.19;;;26.10;61.94
8416;BME280;4245;42.120;24.732;2023-05-25T07:12:40;99269.19;;;26.20;61.50
8416;BME280;4245;42.120;24.732;2023-05-25T07:15:08;99273.00;;;26.32;59.19
8416;BME280;4245;42.120;24.732;2023-05-25T07:17:35;99279.50;;;26.51;59.32
8416;BME280;4245;42.120;24.732;2023-05-25T07:20:05;99276.78;;;26.77;57.84
8416;BME280;4245;42.120;24.732;2023-05-25T07:22:33;99275.25;;;27.14;58.95
8416;BME280;4245;42.120;24.732;2023-05-25T07:25:01;99276.84;;;27.54;55.33
8416;BME280;4245;42.120;24.732;2023-05-25T07:27:29;99277.88;;;27.98;50.86
8416;BME280;4245;42.120;24.732;2023-05-25T07:29:56;99276.94;;;28.17;52.04
8416;BME280;4245;42.120;24.732;2023-05-25T07:32:23;99276.53;;;28.38;55.23
8416;BME280;4245;42.120;24.732;2023-05-25T07:34:49;99274.56;;;28.95;50.10
8416;BME280;4245;42.120;24.732;2023-05-25T07:37:18;99281.78;;;29.14;49.86
8416;BME280;4245;42.120;24.732;2023-05-25T07:39:44;99272.56;;;29.27;47.44
8416;BME280;4245;42.120;24.732;2023-05-25T07:42:11;99284.25;;;29.70;43.95
8416;BME280;4245;42.120;24.732;2023-05-25T07:44:38;99271.59;;;29.58;46.31
8416;BME280;4245;42.120;24.732;2023-05-25T07:47:05;99288.06;;;29.69;43.72
8416;BME280;4245;42.120;24.732;2023-05-25T07:49:32;99280.28;;;29.85;44.46
8416;BME280;4245;42.120;24.732;2023-05-25T07:51:59;99284.34;;;29.82;42.93
8416;BME280;4245;42.120;24.732;2023-05-25T07:54:29;99282.13;;;29.91;45.03
8416;BME280;4245;42.120;24.732;2023-05-25T07:56:56;99285.22;;;30.24;42.45
8416;BME280;4245;42.120;24.732;2023-05-25T07:59:24;99294.47;;;30.53;41.58
8416;BME280;4245;42.120;24.732;2023-05-25T08:01:51;99286.50;;;30.21;42.09
8416;BME280;4245;42.120;24.732;2023-05-25T08:04:18;99288.31;;;30.28;42.50
8416;BME280;4245;42.120;24.732;2023-05-25T08:06:45;99290.78;;;30.17;43.27
8416;BME280;4245;42.120;24.732;2023-05-25T08:09:12;99292.88;;;30.04;43.65
8416;BME280;4245;42.120;24.732;2023-05-25T08:11:40;99289.22;;;29.62;43.42
8416;BME280;4245;42.120;24.732;2023-05-25T08:14:09;99298.94;;;29.21;48.73
8416;BME280;4245;42.120;24.732;2023-05-25T08:16:36;99279.00;;;28.96;48.74
8416;BME280;4245;42.120;24.732;2023-05-25T08:19:03;99280.84;;;29.02;47.42
8416;BME280;4245;42.120;24.732;2023-05-25T08:21:30;99285.97;;;28.92;48.20
8416;BME280;4245;42.120;24.732;2023-05-25T08:23:59;99281.84;;;28.58;50.25
8416;BME280;4245;42.120;24.732;2023-05-25T08:26:28;99281.81;;;28.65;49.96
8416;BME280;4245;42.120;24.732;2023-05-25T08:28:56;99284.06;;;28.43;50.34
8416;BME280;4245;42.120;24.732;2023-05-25T08:31:23;99271.53;;;28.60;49.92
8416;BME280;4245;42.120;24.732;2023-05-25T08:33:50;99275.41;;;28.77;50.32
8416;BME280;4245;42.120;24.732;2023-05-25T08:36:16;99271.47;;;28.91;52.10
8416;BME280;4245;42.120;24.732;2023-05-25T08:38:43;99275.09;;;29.28;50.62
8416;BME280;4245;42.120;24.732;2023-05-25T08:41:11;99271.13;;;29.61;48.15
8416;BME280;4245;42.120;24.732;2023-05-25T08:43:40;99274.50;;;29.93;47.30
8416;BME280;4245;42.120;24.732;2023-05-25T08:46:08;99271.59;;;30.17;44.90
8416;BME280;4245;42.120;24.732;2023-05-25T08:48:36;99278.03;;;30.76;43.98
8416;BME280;4245;42.120;24.732;2023-05-25T08:51:06;99270.03;;;31.33;41.91
8416;BME280;4245;42.120;24.732;2023-05-25T08:53:34;99258.31;;;31.49;41.80
8416;BME280;4245;42.120;24.732;2023-05-25T08:56:04;99269.91;;;32.08;40.76
8416;BME280;4245;42.120;24.732;2023-05-25T08:58:38;99274.09;;;32.39;39.42
8416;BME280;4245;42.120;24.732;2023-05-25T09:01:14;99271.16;;;32.28;38.84
8416;BME280;4245;42.120;24.732;2023-05-25T09:03:44;99276.31;;;32.42;39.19
8416;BME280;4245;42.120;24.732;2023-05-25T09:06:12;99275.50;;;32.91;37.43
8416;BME280;4245;42.120;24.732;2023-05-25T09:08:39;99277.91;;;33.21;38.24
8416;BME280;4245;42.120;24.732;2023-05-25T09:11:06;99275.72;;;33.67;36.41
8416;BME280;4245;42.120;24.732;2023-05-25T09:13:34;99270.75;;;34.12;35.55
8416;BME280;4245;42.120;24.732;2023-05-25T09:16:02;99261.44;;;34.45;34.34
8416;BME280;4245;42.120;24.732;2023-05-25T09:18:30;99267.59;;;34.25;33.26
8416;BME280;4245;42.120;24.732;2023-05-25T09:20:57;99268.03;;;33.25;34.32
8416;BME280;4245;42.120;24.732;2023-05-25T09:23:24;99253.75;;;32.56;34.96
8416;BME280;4245;42.120;24.732;2023-05-25T09:25:52;99260.50;;;32.32;35.48
8416;BME280;4245;42.120;24.732;2023-05-25T09:28:19;99252.75;;;31.72;35.35
8416;BME280;4245;42.120;24.732;2023-05-25T09:30:46;99251.59;;;31.68;35.74
8416;BME280;4245;42.120;24.732;2023-05-25T09:33:14;99257.50;;;32.33;34.94
8416;BME280;4245;42.120;24.732;2023-05-25T09:35:44;99248.53;;;32.71;34.48
8416;BME280;4245;42.120;24.732;2023-05-25T09:38:12;99252.91;;;33.28;34.65
8416;BME280;4245;42.120;24.732;2023-05-25T09:40:39;99256.13;;;34.38;33.09
8416;BME280;4245;42.120;24.732;2023-05-25T09:43:06;99248.88;;;35.01;31.84
8416;BME280;4245;42.120;24.732;2023-05-25T09:45:33;99251.13;;;35.56;29.31
8416;BME280;4245;42.120;24.732;2023-05-25T09:48:01;99246.53;;;35.77;29.28
8416;BME280;4245;42.120;24.732;2023-05-25T09:50:28;99238.69;;;35.02;28.51
8416;BME280;4245;42.120;24.732;2023-05-25T09:52:58;99227.38;;;33.76;31.02
8416;BME280;4245;42.120;24.732;2023-05-25T09:55:26;99230.41;;;33.74;30.11
8416;BME280;4245;42.120;24.732;2023-05-25T09:57:54;99219.41;;;32.75;30.91
8416;BME280;4245;42.120;24.732;2023-05-25T10:00:21;99222.34;;;32.52;31.55
8416;BME280;4245;42.120;24.732;2023-05-25T10:02:49;99216.94;;;32.24;32.59
8416;BME280;4245;42.120;24.732;2023-05-25T10:05:15;99217.22;;;32.77;32.14
8416;BME280;4245;42.120;24.732;2023-05-25T10:07:43;99214.44;;;32.94;31.25
8416;BME280;4245;42.120;24.732;2023-05-25T10:10:13;99211.81;;;33.65;31.29
8416;BME280;4245;42.120;24.732;2023-05-25T10:12:41;99212.81;;;34.07;29.85
8416;BME280;4245;42.120;24.732;2023-05-25T10:15:11;99207.31;;;33.37;30.21
8416;BME280;4245;42.120;24.732;2023-05-25T10:17:42;99205.09;;;33.34;30.39
8416;BME280;4245;42.120;24.732;2023-05-25T10:20:10;99203.53;;;32.83;31.43
8416;BME280;4245;42.120;24.732;2023-05-25T10:22:43;99193.50;;;31.76;33.08
8416;BME280;4245;42.120;24.732;2023-05-25T10:25:17;99204.69;;;31.58;33.80
8416;BME280;4245;42.120;24.732;2023-05-25T10:27:55;99197.91;;;31.49;33.71
8416;BME280;4245;42.120;24.732;2023-05-25T10:30:22;99202.31;;;31.50;34.31
8416;BME280;4245;42.120;24.732;2023-05-25T10:32:51;99207.50;;;31.35;35.07
8416;BME280;4245;42.120;24.732;2023-05-25T10:35:19;99221.03;;;31.13;35.72
8416;BME280;4245;42.120;24.732;2023-05-25T10:37:46;99218.25;;;31.36;35.48
8416;BME280;4245;42.120;24.732;2023-05-25T10:40:18;99216.63;;;31.52;34.32
8416;BME280;4245;42.120;24.732;2023-05-25T10:42:46;99219.13;;;31.54;34.28
8416;BME280;4245;42.120;24.732;2023-05-25T10:45:13;99210.66;;;30.80;35.88
8416;BME280;4245;42.120;24.732;2023-05-25T10:47:41;99210.69;;;30.69;36.14
8416;BME280;4245;42.120;24.732;2023-05-25T10:50:18;99199.28;;;30.07;37.50
8416;BME280;4245;42.120;24.732;2023-05-25T10:52:45;99198.47;;;29.88;37.91
8416;BME280;4245;42.120;24.732;2023-05-25T10:55:12;99195.53;;;29.60;39.57
8416;BME280;4245;42.120;24.732;2023-05-25T10:57:40;99194.94;;;29.58;39.96
8416;BME280;4245;42.120;24.732;2023-05-25T11:00:07;99197.00;;;29.62;39.41
8416;BME280;4245;42.120;24.732;2023-05-25T11:02:48;99191.06;;;29.29;40.69
8416;BME280;4245;42.120;24.732;2023-05-25T11:05:37;99188.13;;;29.12;41.00
8416;BME280;4245;42.120;24.732;2023-05-25T11:08:05;99192.84;;;29.05;39.46
8416;BME280;4245;42.120;24.732;2023-05-25T11:10:51;99198.78;;;28.84;40.63
8416;BME280;4245;42.120;24.732;2023-05-25T11:13:35;99196.22;;;28.64;41.42
8416;BME280;4245;42.120;24.732;2023-05-25T11:16:22;99197.41;;;28.50;39.55
8416;BME280;4245;42.120;24.732;2023-05-25T11:18:51;99200.72;;;28.34;40.37
8416;BME280;4245;42.120;24.732;2023-05-25T11:24:11;99205.63;;;27.94;45.21
8416;BME280;4245;42.120;24.732;2023-05-25T11:26:51;99204.75;;;27.69;46.96
8416;BME280;4245;42.120;24.732;2023-05-25T11:29:20;99200.81;;;27.58;47.75
8416;BME280;4245;42.120;24.732;2023-05-25T11:31:51;99198.34;;;27.43;48.82
8416;BME280;4245;42.120;24.732;2023-05-25T11:34:20;99200.91;;;27.32;48.91
8416;BME280;4245;42.120;24.732;2023-05-25T11:36:47;99195.50;;;27.25;52.16
8416;BME280;4245;42.120;24.732;2023-05-25T11:39:19;99198.28;;;27.12;55.56
8416;BME280;4245;42.120;24.732;2023-05-25T11:41:48;99191.63;;;26.95;57.92
8416;BME280;4245;42.120;24.732;2023-05-25T11:44:26;99196.91;;;26.90;60.03
8416;BME280;4245;42.120;24.732;2023-05-25T11:46:53;99188.72;;;26.76;60.81
8416;BME280;4245;42.120;24.732;2023-05-25T11:49:22;99197.09;;;26.68;61.26
8416;BME280;4245;42.120;24.732;2023-05-25T11:51:49;99189.16;;;26.54;62.25
8416;BME280;4245;42.120;24.732;2023-05-25T11:54:23;99191.06;;;26.66;61.44
8416;BME280;4245;42.120;24.732;2023-05-25T11:56:50;99181.19;;;26.72;60.82
8416;BME280;4245;42.120;24.732;2023-05-25T11:59:17;99182.41;;;26.96;58.30
8416;BME280;4245;42.120;24.732;2023-05-25T12:01:55;99177.09;;;27.07;59.98
8416;BME280;4245;42.120;24.732;2023-05-25T12:04:22;99179.75;;;27.27;56.56
8416;BME280;4245;42.120;24.732;2023-05-25T12:06:49;99179.91;;;27.39;57.45
8416;BME280;4245;42.120;24.732;2023-05-25T12:09:19;99183.03;;;27.49;55.51
8416;BME280;4245;42.120;24.732;2023-05-25T12:11:47;99185.31;;;27.52;57.94
8416;BME280;4245;42.120;24.732;2023-05-25T12:14:14;99188.09;;;27.77;52.94
8416;BME280;4245;42.120;24.732;2023-05-25T12:16:41;99186.91;;;27.97;52.50
8416;BME280;4245;42.120;24.732;2023-05-25T12:19:10;99185.13;;;28.16;51.07
8416;BME280;4245;42.120;24.732;2023-05-25T12:21:38;99182.38;;;28.16;54.93
8416;BME280;4245;42.120;24.732;2023-05-25T12:24:06;99173.72;;;28.19;51.57
8416;BME280;4245;42.120;24.732;2023-05-25T12:26:34;99188.09;;;28.58;49.92
8416;BME280;4245;42.120;24.732;2023-05-25T12:29:02;99180.31;;;28.79;49.61
8416;BME280;4245;42.120;24.732;2023-05-25T12:31:30;99181.00;;;29.11;48.25
8416;BME280;4245;42.120;24.732;2023-05-25T12:34:07;99183.69;;;29.00;47.53
8416;BME280;4245;42.120;24.732;2023-05-25T12:36:44;99178.63;;;29.15;47.72
8416;BME280;4245;42.120;24.732;2023-05-25T12:39:13;99176.50;;;29.65;45.96
8416;BME280;4245;42.120;24.732;2023-05-25T12:41:47;99173.97;;;29.52;46.42
8416;BME280;4245;42.120;24.732;2023-05-25T12:44:25;99182.81;;;29.65;46.28
8416;BME280;4245;42.120;24.732;2023-05-25T12:46:54;99179.50;;;29.33;44.76
8416;BME280;4245;42.120;24.732;2023-05-25T12:49:23;99187.13;;;29.25;43.53
8416;BME280;4245;42.120;24.732;2023-05-25T12:51:51;99182.59;;;29.01;44.65
8416;BME280;4245;42.120;24.732;2023-05-25T12:54:41;99172.00;;;29.41;42.58
8416;BME280;4245;42.120;24.732;2023-05-25T12:57:10;99176.00;;;29.86;41.62
8416;BME280;4245;42.120;24.732;2023-05-25T12:59:38;99177.75;;;30.80;39.80
8416;BME280;4245;42.120;24.732;2023-05-25T13:02:06;99182.91;;;31.68;38.62
8416;BME280;4245;42.120;24.732;2023-05-25T13:04:34;99180.00;;;32.37;37.03
8416;BME280;4245;42.120;24.732;2023-05-25T13:07:02;99184.47;;;32.59;35.61
8416;BME280;4245;42.120;24.732;2023-05-25T13:09:29;99180.88;;;32.59;35.48
8416;BME280;4245;42.120;24.732;2023-05-25T13:11:57;99184.25;;;32.44;36.22
8416;BME280;4245;42.120;24.732;2023-05-25T13:14:25;99189.28;;;32.14;36.37
8416;BME280;4245;42.120;24.732;2023-05-25T13:16:53;99186.41;;;31.64;38.03